Time;durP1;ratioP1;P1;durP2;ratioP2;P2;SDS_P1;SDS_P2;PMS_P1;PMS_P2;Temp;Humidity;BMP_temperature;BMP_pressure;BME280_temperature;BME280_humidity;BME280_pressure;Samples;Min_cycle;Max_cycle;Signal;HPM_P1;HPM_P2
2023/09/13 00:03:39;;;;;;;54.58;31.42;;;;;17.70;100880.00;;;;10053648;29;20205;-79
2023/09/13 00:08:40;;;;;;;53.10;31.98;;;;;17.70;100869.00;;;;10046639;29;20250;-79
2023/09/13 00:13:42;;;;;;;54.40;31.35;;;;;17.60;100875.00;;;;10060839;29;20233;-79
2023/09/13 00:18:44;;;;;;;52.45;31.25;;;;;17.60;100875.00;;;;10040450;29;20210;-79
2023/09/13 00:23:46;;;;;;;54.80;32.15;;;;;17.60;100878.00;;;;10044617;29;20220;-79
2023/09/13 00:28:50;;;;;;;56.17;32.53;;;;;17.50;100872.00;;;;10027634;29;20455;-79
2023/09/13 00:33:51;;;;;;;54.63;32.85;;;;;17.50;100881.00;;;;10034427;29;20565;-78
2023/09/13 00:38:53;;;;;;;64.93;35.58;;;;;17.40;100879.00;;;;10055735;29;20235;-79
2023/09/13 00:43:55;;;;;;;55.42;31.90;;;;;17.40;100866.00;;;;10053978;29;20292;-78
2023/09/13 00:48:57;;;;;;;64.22;34.53;;;;;17.40;100876.00;;;;10059150;29;20215;-78
2023/09/13 00:54:03;;;;;;;57.78;32.53;;;;;17.40;100874.00;;;;10063339;29;20232;-79
2023/09/13 00:59:06;;;;;;;62.05;34.42;;;;;17.40;100880.00;;;;10067777;29;20225;-82
2023/09/13 01:04:07;;;;;;;63.72;34.72;;;;;17.40;100869.00;;;;10065985;29;20276;-79
2023/09/13 01:09:09;;;;;;;67.47;36.42;;;;;17.40;100871.00;;;;10044849;29;20268;-79
2023/09/13 01:14:11;;;;;;;63.38;35.10;;;;;17.30;100871.00;;;;10066086;29;20255;-79
2023/09/13 01:19:44;;;;;;;69.40;35.95;;;;;17.30;100866.00;;;;10051399;29;20277;-79
2023/09/13 01:25:10;;;;;;;70.47;37.03;;;;;17.40;100873.00;;;;10037677;29;20228;-78
2023/09/13 01:30:12;;;;;;;73.90;37.10;;;;;17.50;100871.00;;;;10059228;29;20224;-80
2023/09/13 01:35:14;;;;;;;70.22;39.28;;;;;17.50;100869.00;;;;10036285;29;20246;-78
2023/09/13 01:40:16;;;;;;;69.85;42.72;;;;;17.50;100875.00;;;;10058284;29;20464;-78
2023/09/13 01:45:18;;;;;;;79.07;44.78;;;;;17.50;100876.00;;;;10048774;29;20550;-79
2023/09/13 01:50:20;;;;;;;71.20;41.92;;;;;17.50;100873.00;;;;10049924;29;20458;-79
2023/09/13 01:55:21;;;;;;;72.90;43.65;;;;;17.50;100871.00;;;;10031483;29;20213;-79
2023/09/13 02:00:24;;;;;;;70.70;42.40;;;;;17.50;100868.00;;;;10042536;29;20954;-79
2023/09/13 02:05:25;;;;;;;67.93;39.35;;;;;17.50;100865.00;;;;10054992;29;20236;-79
2023/09/13 02:10:27;;;;;;;67.10;38.25;;;;;17.40;100861.00;;;;10056489;29;20216;-79
2023/09/13 02:15:29;;;;;;;69.00;39.30;;;;;17.40;100869.00;;;;10058182;29;20839;-79
2023/09/13 02:20:31;;;;;;;63.70;38.08;;;;;17.40;100867.00;;;;10051975;29;20216;-79
2023/09/13 02:25:40;;;;;;;67.93;39.30;;;;;17.40;100880.00;;;;10053614;29;20493;-79
2023/09/13 02:30:41;;;;;;;69.47;39.17;;;;;17.30;100881.00;;;;10047198;29;20663;-78
2023/09/13 02:35:47;;;;;;;71.75;40.10;;;;;17.20;100894.00;;;;10062242;29;20212;-77
2023/09/13 02:40:49;;;;;;;73.25;40.08;;;;;17.20;100901.00;;;;10044613;29;20219;-77
2023/09/13 02:45:51;;;;;;;73.80;39.42;;;;;17.20;100897.00;;;;10032514;29;20272;-77
2023/09/13 02:50:52;;;;;;;66.13;38.00;;;;;17.20;100890.00;;;;10041640;29;20220;-80
2023/09/13 02:56:05;;;;;;;66.43;36.53;;;;;17.20;100896.00;;;;10057159;29;20261;-76
2023/09/13 03:01:10;;;;;;;70.63;37.00;;;;;17.20;100897.00;;;;10049636;29;20570;-77
2023/09/13 03:06:15;;;;;;;67.70;37.28;;;;;17.20;100899.00;;;;10036447;29;20230;-77
2023/09/13 03:11:18;;;;;;;65.32;36.13;;;;;17.20;100908.00;;;;10044216;29;20619;-76
2023/09/13 03:16:21;;;;;;;68.47;35.65;;;;;17.30;100913.00;;;;10048240;29;20768;-76
2023/09/13 03:21:24;;;;;;;60.70;32.65;;;;;17.30;100917.00;;;;10049208;29;20217;-78
2023/09/13 03:26:26;;;;;;;62.80;33.90;;;;;17.30;100924.00;;;;10057414;29;20224;-77
2023/09/13 03:31:31;;;;;;;59.97;31.88;;;;;17.40;100933.00;;;;10049758;29;20204;-75
2023/09/13 03:36:35;;;;;;;62.17;34.75;;;;;17.40;100942.00;;;;10041007;29;20702;-76
2023/09/13 03:41:37;;;;;;;67.32;35.17;;;;;17.40;100932.00;;;;10054136;29;20263;-79
2023/09/13 03:46:40;;;;;;;72.03;36.33;;;;;17.40;100936.00;;;;10056621;29;20274;-79
2023/09/13 03:51:42;;;;;;;66.53;33.70;;;;;17.40;100927.00;;;;10034765;29;20583;-79
2023/09/13 03:56:43;;;;;;;70.68;34.53;;;;;17.30;100926.00;;;;10059560;29;20215;-79
2023/09/13 04:01:46;;;;;;;60.60;33.65;;;;;17.30;100929.00;;;;10063681;29;20304;-79
2023/09/13 04:06:47;;;;;;;59.78;33.25;;;;;17.30;100924.00;;;;10050185;29;20717;-79
2023/09/13 04:11:50;;;;;;;59.00;31.67;;;;;17.30;100925.00;;;;10038036;29;20344;-79
2023/09/13 04:16:51;;;;;;;55.40;30.95;;;;;17.30;100919.00;;;;10035837;29;20247;-79
2023/09/13 04:21:52;;;;;;;58.38;31.63;;;;;17.30;100926.00;;;;10038274;29;20219;-80
2023/09/13 04:26:54;;;;;;;58.25;32.13;;;;;17.30;100933.00;;;;10054890;29;20232;-79
2023/09/13 04:31:55;;;;;;;55.03;30.52;;;;;17.30;100936.00;;;;10044795;29;20694;-78
2023/09/13 04:36:57;;;;;;;58.22;31.45;;;;;17.40;100934.00;;;;10059811;29;20240;-79
2023/09/13 04:41:59;;;;;;;58.58;32.85;;;;;17.40;100940.00;;;;10050019;29;20220;-79
2023/09/13 04:47:01;;;;;;;54.35;30.70;;;;;17.50;100944.00;;;;10059851;29;20224;-82
2023/09/13 04:52:03;;;;;;;54.80;31.35;;;;;17.50;100947.00;;;;10033663;29;20210;-82
2023/09/13 04:57:05;;;;;;;52.30;29.83;;;;;17.60;100953.00;;;;10046645;29;20754;-81
2023/09/13 05:02:07;;;;;;;54.90;31.23;;;;;17.60;100946.00;;;;10056793;29;20216;-82
2023/09/13 05:07:09;;;;;;;52.85;31.83;;;;;17.60;100948.00;;;;10047648;29;20228;-82
2023/09/13 05:12:10;;;;;;;59.05;31.23;;;;;17.60;100946.00;;;;10037621;29;20586;-82
2023/09/13 05:17:11;;;;;;;54.88;30.30;;;;;17.60;100962.00;;;;10056560;29;20216;-82
2023/09/13 05:22:13;;;;;;;49.45;29.48;;;;;17.70;100966.00;;;;10045746;29;20216;-82
2023/09/13 05:27:15;;;;;;;53.00;30.45;;;;;17.70;100965.00;;;;10036197;29;20747;-81
2023/09/13 05:32:16;;;;;;;48.50;29.48;;;;;17.80;100975.00;;;;10062774;29;20281;-82
2023/09/13 05:37:18;;;;;;;45.83;29.15;;;;;17.80;100969.00;;;;10051912;29;20216;-81
2023/09/13 05:42:19;;;;;;;52.53;29.73;;;;;17.90;100971.00;;;;10040698;29;20758;-81
2023/09/13 05:47:21;;;;;;;48.67;29.48;;;;;17.90;100975.00;;;;10034132;29;20229;-82
2023/09/13 05:52:22;;;;;;;50.95;31.13;;;;;18.00;100976.00;;;;10048433;29;20622;-82
2023/09/13 05:57:24;;;;;;;53.63;31.33;;;;;18.10;100969.00;;;;10057828;29;20304;-77
2023/09/13 06:02:25;;;;;;;55.40;33.42;;;;;18.20;100987.00;;;;10053964;29;20554;-79
2023/09/13 06:07:26;;;;;;;57.95;33.85;;;;;18.30;100988.00;;;;10047892;29;20224;-78
2023/09/13 06:12:27;;;;;;;59.67;33.13;;;;;18.30;100991.00;;;;10049984;29;20216;-76
2023/09/13 06:17:28;;;;;;;58.22;33.35;;;;;18.30;100987.00;;;;10036875;29;20340;-78
2023/09/13 06:22:32;;;;;;;55.42;31.90;;;;;18.30;101007.00;;;;10058835;29;20216;-75
2023/09/13 06:27:34;;;;;;;57.95;33.38;;;;;18.40;101004.00;;;;10048976;29;20284;-77
2023/09/13 06:32:35;;;;;;;54.90;32.97;;;;;18.80;101006.00;;;;10042533;29;20212;-77
2023/09/13 06:37:44;;;;;;;59.67;33.83;;;;;18.80;101019.00;;;;10053558;29;20224;-77
2023/09/13 06:42:47;;;;;;;44.15;29.30;;;;;18.90;101029.00;;;;10048734;29;20270;-77
2023/09/13 06:47:51;;;;;;;47.38;28.73;;;;;18.80;101042.00;;;;10048097;29;20257;-75
2023/09/13 06:52:53;;;;;;;35.60;24.42;;;;;18.80;101033.00;;;;10055009;29;20297;-77
2023/09/13 06:58:03;;;;;;;38.47;24.77;;;;;18.80;101045.00;;;;10056680;29;20253;-77
2023/09/13 07:03:10;;;;;;;34.70;22.42;;;;;18.90;101045.00;;;;10053726;29;20291;-77
2023/09/13 07:08:15;;;;;;;28.17;20.60;;;;;18.90;101048.00;;;;10050762;29;20200;-76
2023/09/13 07:13:16;;;;;;;28.83;18.75;;;;;19.20;101055.00;;;;10063911;29;20211;-78
2023/09/13 07:18:17;;;;;;;26.55;17.80;;;;;19.30;101044.00;;;;10061083;29;20228;-78
2023/09/13 07:23:19;;;;;;;19.33;14.10;;;;;19.70;101049.00;;;;10063067;29;20223;-77
2023/09/13 07:28:20;;;;;;;18.17;13.05;;;;;20.10;101036.00;;;;10055752;29;20701;-77
2023/09/13 07:33:22;;;;;;;17.80;11.90;;;;;20.50;101039.00;;;;10054411;29;20243;-77
2023/09/13 07:38:23;;;;;;;15.80;10.88;;;;;20.80;101048.00;;;;10057725;29;20208;-77
2023/09/13 07:43:24;;;;;;;13.40;9.57;;;;;20.50;101050.00;;;;10060780;29;20216;-77
2023/09/13 07:48:27;;;;;;;16.80;8.88;;;;;20.80;101053.00;;;;10048581;29;20285;-77
2023/09/13 07:53:28;;;;;;;14.25;7.80;;;;;21.00;101060.00;;;;10057755;29;20238;-77
2023/09/13 07:58:29;;;;;;;12.85;8.32;;;;;20.90;101060.00;;;;10052221;29;20244;-77
2023/09/13 08:03:32;;;;;;;13.93;8.27;;;;;21.20;101071.00;;;;10066017;29;20372;-77
2023/09/13 08:08:34;;;;;;;11.45;6.50;;;;;21.30;101089.00;;;;10059845;29;20680;-77
2023/09/13 08:13:35;;;;;;;11.40;5.13;;;;;21.00;101096.00;;;;10061612;29;20216;-78
2023/09/13 08:18:36;;;;;;;10.40;6.00;;;;;21.10;101106.00;;;;10049113;29;20216;-82
2023/09/13 08:23:38;;;;;;;12.05;6.45;;;;;20.70;101111.00;;;;10049305;29;20236;-82
2023/09/13 08:28:39;;;;;;;11.43;7.20;;;;;20.50;101135.00;;;;10050833;29;20223;-82
2023/09/13 08:33:40;;;;;;;15.73;8.93;;;;;20.50;101143.00;;;;10064294;29;20247;-81
2023/09/13 08:38:41;;;;;;;16.83;9.50;;;;;20.40;101151.00;;;;10062146;29;20280;-84
2023/09/13 08:43:44;;;;;;;16.00;9.38;;;;;20.20;101157.00;;;;10043764;29;20238;-81
2023/09/13 08:48:47;;;;;;;22.65;10.65;;;;;20.30;101162.00;;;;10057658;29;20533;-82
2023/09/13 08:53:51;;;;;;;18.40;11.20;;;;;20.60;101164.00;;;;10068632;29;20302;-83
2023/09/13 08:58:53;;;;;;;20.20;11.05;;;;;21.20;101179.00;;;;10045493;29;20702;-83
2023/09/13 09:03:54;;;;;;;20.17;11.80;;;;;21.80;101165.00;;;;10038454;29;20236;-81
2023/09/13 09:08:56;;;;;;;12.38;7.57;;;;;22.20;101177.00;;;;10067686;29;20295;-84
2023/09/13 09:13:59;;;;;;;19.63;9.88;;;;;22.60;101184.00;;;;10066666;29;20772;-85
2023/09/13 09:19:01;;;;;;;13.60;7.45;;;;;23.00;101191.00;;;;10042734;29;20201;-85
2023/09/13 09:24:02;;;;;;;11.73;6.95;;;;;23.60;101195.00;;;;10065926;29;20267;-84
2023/09/13 09:29:11;;;;;;;14.60;5.88;;;;;23.40;101204.00;;;;10053605;29;20213;-78
2023/09/13 09:34:15;;;;;;;9.15;5.90;;;;;22.40;101213.00;;;;10048290;29;20220;-77
2023/09/13 09:39:16;;;;;;;17.83;9.05;;;;;21.20;101214.00;;;;10037639;29;20212;-79
2023/09/13 09:44:19;;;;;;;12.00;7.05;;;;;21.30;101218.00;;;;10057540;29;20232;-77
2023/09/13 09:49:21;;;;;;;8.90;4.15;;;;;22.70;101219.00;;;;10049845;29;20245;-78
2023/09/13 09:54:22;;;;;;;9.52;3.30;;;;;23.70;101232.00;;;;10051332;29;20212;-77
2023/09/13 09:59:28;;;;;;;4.68;2.42;;;;;23.20;101257.00;;;;10027422;29;20267;-77
2023/09/13 10:04:29;;;;;;;5.35;2.45;;;;;23.20;101265.00;;;;10048454;29;20607;-78
2023/09/13 10:09:42;;;;;;;4.07;2.15;;;;;23.40;101265.00;;;;10061827;29;20217;-77
2023/09/13 10:14:45;;;;;;;4.75;2.08;;;;;23.30;101288.00;;;;10055880;29;20305;-79
2023/09/13 10:19:48;;;;;;;6.15;2.17;;;;;23.00;101282.00;;;;10052739;29;20212;-79
2023/09/13 10:24:57;;;;;;;4.25;2.05;;;;;22.80;101281.00;;;;10047147;29;20235;-77
2023/09/13 10:30:03;;;;;;;2.95;2.30;;;;;23.10;101276.00;;;;10038602;29;20218;-75
2023/09/13 10:35:06;;;;;;;3.63;2.00;;;;;23.60;101281.00;;;;10046401;29;20571;-76
2023/09/13 10:40:23;;;;;;;4.18;1.85;;;;;24.00;101288.00;;;;10048002;29;20228;-80
2023/09/13 10:45:25;;;;;;;3.88;1.55;;;;;23.60;101285.00;;;;10057257;29;20319;-80
2023/09/13 10:50:27;;;;;;;5.40;2.17;;;;;24.80;101306.00;;;;10052614;29;20228;-80
2023/09/13 10:55:29;;;;;;;4.72;1.90;;;;;26.50;101294.00;;;;10048170;29;20380;-81
2023/09/13 11:00:32;;;;;;;4.35;1.75;;;;;25.30;101310.00;;;;10044727;29;20228;-80
2023/09/13 11:05:33;;;;;;;4.35;1.70;;;;;23.40;101332.00;;;;10017858;29;20231;-80
2023/09/13 11:10:36;;;;;;;3.33;1.73;;;;;22.50;101330.00;;;;10045226;29;20756;-79
2023/09/13 11:15:47;;;;;;;4.40;1.83;;;;;23.40;101330.00;;;;10040587;29;20638;-79
2023/09/13 11:20:52;;;;;;;2.60;1.42;;;;;25.30;101326.00;;;;10026585;29;20213;-79
2023/09/13 11:25:55;;;;;;;2.67;1.48;;;;;24.60;101339.00;;;;10041984;29;20625;-80
2023/09/13 11:31:10;;;;;;;2.97;1.60;;;;;23.60;101352.00;;;;10051297;29;20304;-81
2023/09/13 11:36:16;;;;;;;1.02;0.88;;;;;24.10;101360.00;;;;10046723;29;20240;-81
2023/09/13 11:41:18;;;;;;;1.75;1.00;;;;;25.00;101347.00;;;;10065252;29;20230;-81
2023/09/13 11:46:19;;;;;;;2.38;0.90;;;;;25.00;101367.00;;;;10051954;29;20244;-82
2023/09/13 11:51:22;;;;;;;0.90;0.80;;;;;24.40;101373.00;;;;10048708;29;20702;-81
2023/09/13 11:56:32;;;;;;;3.97;1.20;;;;;25.00;101369.00;;;;10044782;29;20277;-82
2023/09/13 12:01:48;;;;;;;2.58;0.70;;;;;26.00;101372.00;;;;10042122;29;20632;-82
2023/09/13 12:06:57;;;;;;;1.00;0.70;;;;;26.10;101374.00;;;;10087799;29;20233;-82
2023/09/13 12:12:04;;;;;;;3.20;0.90;;;;;25.80;101403.00;;;;10108317;29;20384;-82
2023/09/13 12:17:12;;;;;;;1.35;0.90;;;;;25.70;101391.00;;;;10079969;29;20213;-82
2023/09/13 12:22:16;;;;;;;1.00;0.90;;;;;26.10;101396.00;;;;10074133;29;20809;-85
2023/09/13 12:27:18;;;;;;;1.30;1.00;;;;;27.00;101390.00;;;;10071050;29;20232;-85
2023/09/13 12:32:19;;;;;;;2.92;0.82;;;;;26.00;101412.00;;;;10080264;29;20216;-86
2023/09/13 12:37:21;;;;;;;1.55;0.60;;;;;24.30;101428.00;;;;10070527;29;20205;-83
2023/09/13 12:42:23;;;;;;;1.95;0.70;;;;;23.30;101424.00;;;;10079159;29;20238;-84
2023/09/13 12:47:24;;;;;;;1.05;0.85;;;;;25.60;101419.00;;;;10064746;29;20301;-83
2023/09/13 12:52:27;;;;;;;1.00;0.70;;;;;27.00;101430.00;;;;10051957;29;20798;-84
2023/09/13 12:57:30;;;;;;;1.73;0.88;;;;;25.20;101425.00;;;;10051439;29;20236;-80
2023/09/13 13:02:32;;;;;;;0.85;0.73;;;;;23.80;101431.00;;;;10046681;29;20833;-78
2023/09/13 13:07:38;;;;;;;2.40;0.80;;;;;23.60;101429.00;;;;10033264;29;20232;-79
2023/09/13 13:12:59;;;;;;;1.75;0.57;;;;;24.90;101418.00;;;;10026172;29;20228;-79
2023/09/13 13:18:00;;;;;;;0.70;0.70;;;;;25.40;101431.00;;;;10025206;29;20257;-79
2023/09/13 13:23:05;;;;;;;1.15;0.90;;;;;25.50;101431.00;;;;10036467;29;20353;-78
2023/09/13 13:28:10;;;;;;;1.27;0.77;;;;;24.20;101432.00;;;;10045595;29;20275;-78
2023/09/13 13:33:11;;;;;;;2.55;0.70;;;;;24.90;101423.00;;;;10046819;29;20434;-81
2023/09/13 13:38:13;;;;;;;2.42;0.88;;;;;26.20;101423.00;;;;10058466;29;20690;-78
2023/09/13 13:43:15;;;;;;;1.52;0.60;;;;;26.00;101438.00;;;;10057965;29;20220;-77
2023/09/13 13:48:16;;;;;;;2.00;0.68;;;;;24.90;101438.00;;;;10036748;29;20320;-79
2023/09/13 13:53:20;;;;;;;1.17;0.60;;;;;24.00;101440.00;;;;10039132;29;20216;-77
2023/09/13 13:58:21;;;;;;;1.23;0.65;;;;;25.00;101433.00;;;;10051931;29;20239;-80
2023/09/13 14:03:24;;;;;;;2.47;0.80;;;;;24.90;101437.00;;;;10046332;29;20266;-80
2023/09/13 14:08:26;;;;;;;2.63;0.93;;;;;24.20;101445.00;;;;10048060;29;20236;-82
2023/09/13 14:13:27;;;;;;;1.70;0.77;;;;;23.90;101447.00;;;;10042426;29;20220;-85
2023/09/13 14:18:29;;;;;;;2.50;0.85;;;;;24.20;101448.00;;;;10042038;29;20224;-85
2023/09/13 14:23:30;;;;;;;3.40;1.13;;;;;24.20;101450.00;;;;10048723;29;20220;-84
2023/09/13 14:28:32;;;;;;;3.85;1.25;;;;;24.20;101455.00;;;;10033725;29;20220;-86
2023/09/13 14:33:37;;;;;;;2.22;1.67;;;;;24.10;101443.00;;;;10057732;29;20212;-85
2023/09/13 14:38:38;;;;;;;2.72;0.93;;;;;24.00;101442.00;;;;10045216;29;20225;-85
2023/09/13 14:43:39;;;;;;;3.22;1.00;;;;;23.90;101441.00;;;;10038064;29;20619;-85
2023/09/13 14:48:41;;;;;;;2.22;1.20;;;;;24.10;101435.00;;;;10045108;29;20274;-84
2023/09/13 14:53:43;;;;;;;1.25;1.00;;;;;24.00;101442.00;;;;10052397;29;20208;-87
2023/09/13 14:58:44;;;;;;;3.47;1.08;;;;;23.60;101443.00;;;;10045877;29;20239;-79
2023/09/13 15:03:46;;;;;;;2.55;1.25;;;;;23.50;101435.00;;;;10032177;29;20887;-82
2023/09/13 15:08:50;;;;;;;2.25;1.30;;;;;23.40;101443.00;;;;10030125;29;20225;-85
2023/09/13 15:13:52;;;;;;;2.55;1.15;;;;;23.20;101447.00;;;;10055760;29;20496;-83
2023/09/13 15:18:53;;;;;;;4.32;1.20;;;;;23.00;101455.00;;;;10044295;29;20213;-86
2023/09/13 15:23:55;;;;;;;4.18;1.35;;;;;23.10;101450.00;;;;10044261;29;20219;-87
2023/09/13 15:28:57;;;;;;;2.92;1.23;;;;;22.90;101451.00;;;;10046987;29;20221;-86
2023/09/13 15:33:58;;;;;;;5.95;1.08;;;;;22.70;101447.00;;;;10062495;29;20221;-87
2023/09/13 15:39:00;;;;;;;3.65;1.52;;;;;22.40;101452.00;;;;10054426;29;20215;-85
2023/09/13 15:44:05;;;;;;;2.35;1.25;;;;;22.30;101454.00;;;;10072563;29;20722;-84
2023/09/13 16:11:25;;;;;;;2.50;1.83;;;;;20.80;101477.00;;;;10252634;23;20290;-91
2023/09/13 16:22:51;;;;;;;4.88;1.98;;;;;20.60;101482.00;;;;10317273;23;20237;-90
2023/09/13 16:27:56;;;;;;;3.70;1.75;;;;;20.60;101484.00;;;;10815552;23;20237;-85
2023/09/13 16:32:57;;;;;;;3.45;1.83;;;;;20.60;101487.00;;;;10199320;28;20513;-87
2023/09/13 16:37:59;;;;;;;3.20;1.77;;;;;20.50;101494.00;;;;10177951;28;20238;-86
2023/09/13 16:43:00;;;;;;;4.30;1.92;;;;;20.30;101500.00;;;;10182850;29;20311;-83
2023/09/13 16:48:02;;;;;;;5.95;2.28;;;;;20.20;101504.00;;;;10185557;28;20290;-87
2023/09/13 16:53:04;;;;;;;5.32;1.40;;;;;20.20;101497.00;;;;10196726;29;20262;-89
2023/09/13 16:58:05;;;;;;;4.20;2.00;;;;;20.20;101513.00;;;;10197887;29;20214;-90
2023/09/13 17:03:06;;;;;;;4.88;1.80;;;;;20.00;101506.00;;;;10219478;28;20217;-89
2023/09/13 17:08:08;;;;;;;2.97;1.83;;;;;19.90;101522.00;;;;10159784;28;20297;-88
2023/09/13 17:13:23;;;;;;;5.32;2.03;;;;;19.80;101522.00;;;;10175160;29;20213;-89
2023/09/13 17:18:25;;;;;;;4.95;2.20;;;;;19.60;101527.00;;;;10195770;29;20214;-86
2023/09/13 17:23:29;;;;;;;6.90;1.95;;;;;19.40;101530.00;;;;10179698;29;20845;-89
2023/09/13 17:28:30;;;;;;;6.22;1.98;;;;;19.30;101535.00;;;;10189566;29;20245;-88
2023/09/13 17:33:31;;;;;;;3.65;1.77;;;;;19.10;101538.00;;;;10205267;29;20846;-84
2023/09/13 17:38:34;;;;;;;5.70;1.70;;;;;18.90;101549.00;;;;10201990;28;20254;-77
2023/09/13 17:43:35;;;;;;;3.85;1.92;;;;;18.80;101556.00;;;;10163717;29;20217;-77
2023/09/13 17:48:36;;;;;;;3.50;1.95;;;;;18.60;101557.00;;;;10180879;29;20256;-77
2023/09/13 17:53:38;;;;;;;5.75;1.70;;;;;18.40;101565.00;;;;10192751;29;20214;-79
2023/09/13 17:58:39;;;;;;;6.05;1.85;;;;;18.20;101576.00;;;;10183462;28;20808;-76
2023/09/13 18:03:40;;;;;;;6.78;2.30;;;;;18.00;101581.00;;;;10164576;29;20237;-77
2023/09/13 18:08:42;;;;;;;6.03;1.80;;;;;17.90;101575.00;;;;10144883;29;20221;-77
2023/09/13 18:13:44;;;;;;;5.93;1.77;;;;;17.70;101587.00;;;;10156757;29;20203;-76
2023/09/13 18:18:45;;;;;;;5.38;2.08;;;;;17.60;101587.00;;;;10145201;29;20572;-78
2023/09/13 18:23:48;;;;;;;5.05;1.90;;;;;17.50;101596.00;;;;10154272;29;20203;-77
2023/09/13 18:28:51;;;;;;;6.60;1.90;;;;;17.40;101591.00;;;;10164556;29;20373;-77
2023/09/13 18:33:52;;;;;;;6.15;1.98;;;;;17.40;101598.00;;;;10144032;29;20885;-76
2023/09/13 18:38:54;;;;;;;10.32;2.35;;;;;17.40;101606.00;;;;10150042;29;20266;-77
2023/09/13 18:43:56;;;;;;;3.85;1.85;;;;;17.40;101616.00;;;;10148808;29;20554;-77
2023/09/13 18:48:58;;;;;;;4.28;1.98;;;;;17.30;101622.00;;;;10137505;29;20213;-77
2023/09/13 18:54:00;;;;;;;3.13;2.05;;;;;17.20;101627.00;;;;10157496;29;20217;-76
2023/09/13 18:59:02;;;;;;;3.38;2.05;;;;;17.30;101637.00;;;;10131017;29;20225;-76
2023/09/13 19:04:04;;;;;;;5.68;2.22;;;;;17.30;101629.00;;;;10144147;29;20938;-78
2023/09/13 19:09:07;;;;;;;4.50;2.28;;;;;17.40;101623.00;;;;10159742;29;20588;-77
2023/09/13 19:14:08;;;;;;;5.32;2.75;;;;;17.40;101640.00;;;;10143303;29;20207;-77
2023/09/13 19:19:10;;;;;;;4.57;2.70;;;;;17.40;101645.00;;;;10131773;29;20211;-77
2023/09/13 19:24:11;;;;;;;4.70;2.42;;;;;17.50;101641.00;;;;10135978;29;20230;-76
2023/09/13 19:29:12;;;;;;;4.38;2.90;;;;;17.40;101653.00;;;;10156691;29;20237;-78
2023/09/13 19:34:14;;;;;;;5.55;2.45;;;;;17.40;101654.00;;;;10143750;29;20206;-76
2023/09/13 19:39:16;;;;;;;3.88;2.40;;;;;17.40;101649.00;;;;10151136;29;20696;-80
2023/09/13 19:44:18;;;;;;;5.20;2.90;;;;;17.30;101650.00;;;;10119998;29;20309;-77
2023/09/13 19:49:20;;;;;;;3.05;2.30;;;;;17.30;101655.00;;;;10147165;29;20222;-79
2023/09/13 19:54:22;;;;;;;4.85;3.13;;;;;17.20;101654.00;;;;10156919;29;21026;-77
2023/09/13 19:59:23;;;;;;;3.72;2.70;;;;;17.00;101663.00;;;;10155027;29;20238;-77
2023/09/13 20:04:25;;;;;;;4.57;2.30;;;;;16.80;101667.00;;;;10162883;29;20308;-77
2023/09/13 20:09:26;;;;;;;5.00;2.80;;;;;16.60;101658.00;;;;10186487;29;20218;-76
2023/09/13 20:14:28;;;;;;;6.28;2.72;;;;;16.40;101659.00;;;;10168820;29;20209;-78
2023/09/13 20:19:29;;;;;;;6.22;3.45;;;;;16.30;101659.00;;;;10138738;29;20785;-79
2023/09/13 20:24:30;;;;;;;4.25;2.92;;;;;16.10;101655.00;;;;10123732;29;20226;-79
2023/09/13 20:29:32;;;;;;;6.05;2.80;;;;;16.00;101660.00;;;;10148239;29;20853;-78
2023/09/13 20:34:34;;;;;;;5.55;3.08;;;;;15.90;101659.00;;;;10146771;29;20630;-77
2023/09/13 20:39:35;;;;;;;4.20;3.08;;;;;15.70;101667.00;;;;10140617;29;20300;-77
2023/09/13 20:44:36;;;;;;;7.65;2.92;;;;;15.60;101672.00;;;;10126587;29;20227;-76
2023/09/13 20:49:38;;;;;;;4.82;3.03;;;;;15.50;101682.00;;;;10149221;29;20214;-76
2023/09/13 20:54:39;;;;;;;4.50;3.25;;;;;15.60;101678.00;;;;10150419;29;20238;-77
2023/09/13 20:59:41;;;;;;;7.03;3.70;;;;;15.70;101684.00;;;;10130325;29;20222;-78
2023/09/13 21:04:42;;;;;;;6.18;3.08;;;;;15.80;101682.00;;;;10140788;29;20262;-76
2023/09/13 21:09:44;;;;;;;5.72;3.08;;;;;15.80;101685.00;;;;10177952;29;20678;-76
2023/09/13 21:14:45;;;;;;;5.97;3.15;;;;;15.90;101678.00;;;;10161153;29;20214;-75
2023/09/13 21:19:46;;;;;;;7.22;3.20;;;;;15.90;101698.00;;;;10148540;29;20219;-76
2023/09/13 21:24:49;;;;;;;7.20;3.30;;;;;15.70;101694.00;;;;10153726;29;20310;-77
2023/09/13 21:29:50;;;;;;;5.72;2.90;;;;;15.50;101698.00;;;;10156074;29;20221;-76
2023/09/13 21:34:51;;;;;;;7.72;3.10;;;;;15.30;101696.00;;;;10161376;29;20225;-75
2023/09/13 21:40:04;;;;;;;8.65;3.47;;;;;15.10;101695.00;;;;10161849;29;20214;-77
2023/09/13 21:45:06;;;;;;;5.13;3.45;;;;;15.00;101687.00;;;;10168598;29;20230;-77
2023/09/13 21:50:08;;;;;;;4.78;3.30;;;;;14.90;101692.00;;;;10164613;29;20218;-80
2023/09/13 21:55:09;;;;;;;4.93;3.72;;;;;14.80;101695.00;;;;10174330;29;20219;-78
2023/09/13 22:00:20;;;;;;;7.38;3.30;;;;;14.70;101699.00;;;;10156949;29;20230;-77
2023/09/13 22:05:22;;;;;;;5.97;3.22;;;;;14.60;101689.00;;;;10131653;29;20233;-76
2023/09/13 22:10:23;;;;;;;5.20;3.33;;;;;14.50;101694.00;;;;10135238;29;20221;-76
2023/09/13 22:15:25;;;;;;;6.20;3.60;;;;;14.30;101699.00;;;;10115446;29;20263;-79
2023/09/13 22:20:26;;;;;;;9.30;3.55;;;;;14.30;101692.00;;;;10140246;29;20215;-78
2023/09/13 22:25:28;;;;;;;5.93;3.47;;;;;14.20;101694.00;;;;10159173;29;20233;-77
2023/09/13 22:30:29;;;;;;;4.73;3.07;;;;;14.10;101690.00;;;;10133383;29;20230;-79
2023/09/13 22:35:30;;;;;;;6.30;3.70;;;;;13.90;101687.00;;;;10147634;29;20429;-79
2023/09/13 22:40:33;;;;;;;7.23;4.03;;;;;13.90;101691.00;;;;10157003;29;20755;-77
2023/09/13 22:45:37;;;;;;;5.70;3.40;;;;;13.90;101691.00;;;;10177472;29;20226;-78
2023/09/13 22:50:38;;;;;;;5.57;3.13;;;;;13.80;101694.00;;;;10129459;29;20211;-79
2023/09/13 22:55:53;;;;;;;8.13;3.50;;;;;13.70;101689.00;;;;10162171;29;20269;-78
2023/09/13 23:00:54;;;;;;;4.53;3.07;;;;;13.60;101708.00;;;;10135725;29;20214;-77
2023/09/13 23:05:58;;;;;;;8.57;4.17;;;;;13.50;101694.00;;;;10162702;29;20218;-78
2023/09/13 23:11:00;;;;;;;6.20;3.50;;;;;13.50;101697.00;;;;10145770;29;20222;-78
2023/09/13 23:16:03;;;;;;;8.40;3.97;;;;;13.40;101699.00;;;;10159639;29;20318;-77
2023/09/13 23:21:06;;;;;;;8.13;3.97;;;;;13.30;101697.00;;;;10146789;29;20832;-77
2023/09/13 23:26:07;;;;;;;6.30;3.97;;;;;13.30;101696.00;;;;10160018;29;20723;-79
2023/09/13 23:31:11;;;;;;;9.13;4.00;;;;;13.30;101689.00;;;;10128944;29;20329;-77
2023/09/13 23:36:14;;;;;;;8.20;4.90;;;;;13.30;101688.00;;;;10141417;29;20211;-77
2023/09/13 23:41:16;;;;;;;10.20;4.37;;;;;13.30;101684.00;;;;10166343;29;20218;-77
2023/09/13 23:46:17;;;;;;;8.30;4.50;;;;;13.20;101689.00;;;;10119567;29;20250;-78
2023/09/13 23:51:19;;;;;;;7.67;4.00;;;;;13.20;101685.00;;;;10166443;29;20219;-77
2023/09/13 23:56:20;;;;;;;8.43;4.37;;;;;13.20;101687.00;;;;10153212;29;20688;-78
